sensor_id;sensor_type;location;lat;lon;timestamp;temperature;humidity
64817;DHT22;53289;45.602;11.904;2022-12-07T00:01:18;1.10;86.70
64817;DHT22;53289;45.602;11.904;2022-12-07T00:03:46;1.10;86.60
64817;DHT22;53289;45.602;11.904;2022-12-07T00:06:13;1.00;86.60
64817;DHT22;53289;45.602;11.904;2022-12-07T00:08:40;1.00;86.60
64817;DHT22;53289;45.602;11.904;2022-12-07T00:11:11;0.90;86.60
64817;DHT22;53289;45.602;11.904;2022-12-07T00:13:39;0.90;86.70
64817;DHT22;53289;45.602;11.904;2022-12-07T00:16:18;0.80;86.70
64817;DHT22;53289;45.602;11.904;2022-12-07T00:18:45;0.80;86.80
64817;DHT22;53289;45.602;11.904;2022-12-07T00:21:19;0.80;86.80
64817;DHT22;53289;45.602;11.904;2022-12-07T00:23:47;0.80;86.80
64817;DHT22;53289;45.602;11.904;2022-12-07T00:26:20;0.80;86.90
64817;DHT22;53289;45.602;11.904;2022-12-07T00:28:54;0.80;86.80
64817;DHT22;53289;45.602;11.904;2022-12-07T00:31:23;0.80;86.80
64817;DHT22;53289;45.602;11.904;2022-12-07T00:33:50;0.90;86.70
64817;DHT22;53289;45.602;11.904;2022-12-07T00:36:19;0.80;86.70
64817;DHT22;53289;45.602;11.904;2022-12-07T00:38:45;0.90;86.80
64817;DHT22;53289;45.602;11.904;2022-12-07T00:41:19;0.90;86.80
64817;DHT22;53289;45.602;11.904;2022-12-07T00:43:47;0.90;86.70
64817;DHT22;53289;45.602;11.904;2022-12-07T00:46:14;0.90;86.70
64817;DHT22;53289;45.602;11.904;2022-12-07T00:48:40;0.90;86.60
64817;DHT22;53289;45.602;11.904;2022-12-07T00:51:07;0.90;86.50
64817;DHT22;53289;45.602;11.904;2022-12-07T00:53:36;0.90;86.60
64817;DHT22;53289;45.602;11.904;2022-12-07T00:56:28;0.90;86.60
64817;DHT22;53289;45.602;11.904;2022-12-07T00:59:02;0.90;86.50
64817;DHT22;53289;45.602;11.904;2022-12-07T01:01:31;0.90;86.40
64817;DHT22;53289;45.602;11.904;2022-12-07T01:03:57;0.80;86.40
64817;DHT22;53289;45.602;11.904;2022-12-07T01:06:25;0.70;86.40
64817;DHT22;53289;45.602;11.904;2022-12-07T01:08:51;0.70;86.40
64817;DHT22;53289;45.602;11.904;2022-12-07T01:11:19;0.60;86.40
64817;DHT22;53289;45.602;11.904;2022-12-07T01:13:45;0.60;86.40
64817;DHT22;53289;45.602;11.904;2022-12-07T01:16:14;0.50;86.50
64817;DHT22;53289;45.602;11.904;2022-12-07T01:18:40;0.40;86.50
64817;DHT22;53289;45.602;11.904;2022-12-07T01:21:14;0.30;86.60
64817;DHT22;53289;45.602;11.904;2022-12-07T01:23:41;0.30;86.70
64817;DHT22;53289;45.602;11.904;2022-12-07T01:26:12;0.20;86.70
64817;DHT22;53289;45.602;11.904;2022-12-07T01:28:38;0.20;86.70
64817;DHT22;53289;45.602;11.904;2022-12-07T01:31:13;0.10;86.80
64817;DHT22;53289;45.602;11.904;2022-12-07T01:33:42;0.10;86.90
64817;DHT22;53289;45.602;11.904;2022-12-07T01:36:17;0.10;87.00
64817;DHT22;53289;45.602;11.904;2022-12-07T01:38:44;0.10;87.10
64817;DHT22;53289;45.602;11.904;2022-12-07T01:41:12;0.10;87.10
64817;DHT22;53289;45.602;11.904;2022-12-07T01:44:11;0.10;87.10
64817;DHT22;53289;45.602;11.904;2022-12-07T01:46:38;0.10;87.10
64817;DHT22;53289;45.602;11.904;2022-12-07T01:49:07;0.10;87.10
64817;DHT22;53289;45.602;11.904;2022-12-07T01:51:34;0.10;87.10
64817;DHT22;53289;45.602;11.904;2022-12-07T01:54:02;0.10;87.20
64817;DHT22;53289;45.602;11.904;2022-12-07T01:56:28;0.10;87.20
64817;DHT22;53289;45.602;11.904;2022-12-07T01:58:55;0.10;87.20
64817;DHT22;53289;45.602;11.904;2022-12-07T02:01:22;0.10;87.20
64817;DHT22;53289;45.602;11.904;2022-12-07T02:03:48;0.10;87.20
64817;DHT22;53289;45.602;11.904;2022-12-07T02:06:19;0.10;87.10
64817;DHT22;53289;45.602;11.904;2022-12-07T02:08:46;0.10;87.10
64817;DHT22;53289;45.602;11.904;2022-12-07T02:11:13;0.10;87.20
64817;DHT22;53289;45.602;11.904;2022-12-07T02:13:40;0.10;87.20
64817;DHT22;53289;45.602;11.904;2022-12-07T02:16:32;0.10;87.30
64817;DHT22;53289;45.602;11.904;2022-12-07T02:22:30;0.20;87.30
64817;DHT22;53289;45.602;11.904;2022-12-07T02:27:52;0.30;87.20
64817;DHT22;53289;45.602;11.904;2022-12-07T02:30:23;0.30;87.10
64817;DHT22;53289;45.602;11.904;2022-12-07T02:33:17;0.30;87.10
64817;DHT22;53289;45.602;11.904;2022-12-07T02:36:06;0.30;87.10
64817;DHT22;53289;45.602;11.904;2022-12-07T02:39:06;0.30;87.00
64817;DHT22;53289;45.602;11.904;2022-12-07T02:41:40;0.30;87.10
64817;DHT22;53289;45.602;11.904;2022-12-07T02:44:12;0.40;87.00
64817;DHT22;53289;45.602;11.904;2022-12-07T02:46:57;0.40;86.90
64817;DHT22;53289;45.602;11.904;2022-12-07T02:49:26;0.40;87.00
64817;DHT22;53289;45.602;11.904;2022-12-07T02:51:53;0.40;86.90
64817;DHT22;53289;45.602;11.904;2022-12-07T02:54:21;0.40;86.90
64817;DHT22;53289;45.602;11.904;2022-12-07T03:10:25;0.30;86.90
64817;DHT22;53289;45.602;11.904;2022-12-07T03:13:05;0.30;86.90
64817;DHT22;53289;45.602;11.904;2022-12-07T03:15:57;0.30;86.90
64817;DHT22;53289;45.602;11.904;2022-12-07T03:18:27;0.30;87.00
64817;DHT22;53289;45.602;11.904;2022-12-07T03:20:57;0.30;87.00
64817;DHT22;53289;45.602;11.904;2022-12-07T03:23:25;0.30;87.00
64817;DHT22;53289;45.602;11.904;2022-12-07T03:25:57;0.30;87.00
64817;DHT22;53289;45.602;11.904;2022-12-07T03:28:27;0.20;87.00
64817;DHT22;53289;45.602;11.904;2022-12-07T03:31:33;0.20;87.00
64817;DHT22;53289;45.602;11.904;2022-12-07T03:39:23;0.10;87.10
64817;DHT22;53289;45.602;11.904;2022-12-07T03:41:50;0.10;87.10
64817;DHT22;53289;45.602;11.904;2022-12-07T03:44:16;0.10;87.20
64817;DHT22;53289;45.602;11.904;2022-12-07T03:54:33;0.20;87.40
64817;DHT22;53289;45.602;11.904;2022-12-07T03:57:01;0.20;87.40
64817;DHT22;53289;45.602;11.904;2022-12-07T03:59:28;0.30;87.40
64817;DHT22;53289;45.602;11.904;2022-12-07T04:01:59;0.30;87.40
64817;DHT22;53289;45.602;11.904;2022-12-07T04:04:27;0.30;87.30
64817;DHT22;53289;45.602;11.904;2022-12-07T04:06:53;0.30;87.30
64817;DHT22;53289;45.602;11.904;2022-12-07T04:09:19;0.30;87.30
64817;DHT22;53289;45.602;11.904;2022-12-07T04:11:46;0.30;87.30
64817;DHT22;53289;45.602;11.904;2022-12-07T04:14:12;0.30;87.40
64817;DHT22;53289;45.602;11.904;2022-12-07T04:16:47;0.20;87.30
64817;DHT22;53289;45.602;11.904;2022-12-07T04:19:14;0.20;87.30
64817;DHT22;53289;45.602;11.904;2022-12-07T04:21:40;0.30;87.30
64817;DHT22;53289;45.602;11.904;2022-12-07T04:24:06;0.20;87.30
64817;DHT22;53289;45.602;11.904;2022-12-07T04:26:32;0.20;87.30
64817;DHT22;53289;45.602;11.904;2022-12-07T04:28:58;0.20;87.40
64817;DHT22;53289;45.602;11.904;2022-12-07T04:31:25;0.20;87.40
64817;DHT22;53289;45.602;11.904;2022-12-07T04:33:51;0.30;87.40
64817;DHT22;53289;45.602;11.904;2022-12-07T04:36:17;0.30;87.40
64817;DHT22;53289;45.602;11.904;2022-12-07T04:38:45;0.30;87.40
64817;DHT22;53289;45.602;11.904;2022-12-07T04:41:11;0.30;87.40
64817;DHT22;53289;45.602;11.904;2022-12-07T04:43:37;0.30;87.30
64817;DHT22;53289;45.602;11.904;2022-12-07T04:46:03;0.20;87.20
64817;DHT22;53289;45.602;11.904;2022-12-07T04:48:29;0.20;87.20
64817;DHT22;53289;45.602;11.904;2022-12-07T04:50:55;0.30;87.30
64817;DHT22;53289;45.602;11.904;2022-12-07T04:53:22;0.30;87.40
64817;DHT22;53289;45.602;11.904;2022-12-07T04:55:48;0.20;87.30
64817;DHT22;53289;45.602;11.904;2022-12-07T04:58:14;0.10;87.30
64817;DHT22;53289;45.602;11.904;2022-12-07T05:00:40;0.20;87.30
64817;DHT22;53289;45.602;11.904;2022-12-07T05:03:06;0.20;87.30
64817;DHT22;53289;45.602;11.904;2022-12-07T05:05:33;0.20;87.30
64817;DHT22;53289;45.602;11.904;2022-12-07T05:07:59;0.20;87.30
64817;DHT22;53289;45.602;11.904;2022-12-07T05:10:25;0.20;87.30
64817;DHT22;53289;45.602;11.904;2022-12-07T05:12:51;0.20;87.20
64817;DHT22;53289;45.602;11.904;2022-12-07T05:15:17;0.10;87.20
64817;DHT22;53289;45.602;11.904;2022-12-07T05:17:43;0.10;87.10
64817;DHT22;53289;45.602;11.904;2022-12-07T05:20:09;0.00;87.10
64817;DHT22;53289;45.602;11.904;2022-12-07T05:22:35;0.00;87.20
64817;DHT22;53289;45.602;11.904;2022-12-07T05:25:01;0.00;87.30
64817;DHT22;53289;45.602;11.904;2022-12-07T05:27:27;0.00;87.30
64817;DHT22;53289;45.602;11.904;2022-12-07T05:29:53;0.00;87.30
64817;DHT22;53289;45.602;11.904;2022-12-07T05:32:19;0.00;87.30
64817;DHT22;53289;45.602;11.904;2022-12-07T05:34:46;0.00;87.40
64817;DHT22;53289;45.602;11.904;2022-12-07T05:37:12;0.00;87.40
64817;DHT22;53289;45.602;11.904;2022-12-07T05:39:38;0.00;87.40
64817;DHT22;53289;45.602;11.904;2022-12-07T05:42:06;0.00;87.40
64817;DHT22;53289;45.602;11.904;2022-12-07T05:44:42;0.00;87.50
64817;DHT22;53289;45.602;11.904;2022-12-07T05:47:10;0.00;87.50
64817;DHT22;53289;45.602;11.904;2022-12-07T05:49:36;0.00;87.50
64817;DHT22;53289;45.602;11.904;2022-12-07T05:52:02;0.00;87.50
64817;DHT22;53289;45.602;11.904;2022-12-07T05:54:30;0.00;87.50
64817;DHT22;53289;45.602;11.904;2022-12-07T05:56:55;0.00;87.40
64817;DHT22;53289;45.602;11.904;2022-12-07T05:59:21;0.00;87.40
64817;DHT22;53289;45.602;11.904;2022-12-07T06:02:02;0.00;87.50
64817;DHT22;53289;45.602;11.904;2022-12-07T06:04:30;0.00;87.60
64817;DHT22;53289;45.602;11.904;2022-12-07T06:06:58;0.00;87.60
64817;DHT22;53289;45.602;11.904;2022-12-07T06:09:26;0.00;87.50
64817;DHT22;53289;45.602;11.904;2022-12-07T06:11:52;0.00;87.50
64817;DHT22;53289;45.602;11.904;2022-12-07T06:14:37;0.00;87.40
64817;DHT22;53289;45.602;11.904;2022-12-07T06:17:03;0.00;87.40
64817;DHT22;53289;45.602;11.904;2022-12-07T06:19:30;0.00;87.40
64817;DHT22;53289;45.602;11.904;2022-12-07T06:21:56;0.00;87.60
64817;DHT22;53289;45.602;11.904;2022-12-07T06:24:22;0.00;87.70
64817;DHT22;53289;45.602;11.904;2022-12-07T06:26:49;0.00;87.70
64817;DHT22;53289;45.602;11.904;2022-12-07T06:29:15;0.00;87.70
64817;DHT22;53289;45.602;11.904;2022-12-07T06:31:41;0.00;87.70
64817;DHT22;53289;45.602;11.904;2022-12-07T06:34:11;0.00;87.70
64817;DHT22;53289;45.602;11.904;2022-12-07T06:36:38;0.00;87.70
64817;DHT22;53289;45.602;11.904;2022-12-07T06:39:04;0.00;87.60
64817;DHT22;53289;45.602;11.904;2022-12-07T06:41:31;0.00;87.60
64817;DHT22;53289;45.602;11.904;2022-12-07T06:43:57;0.00;87.50
64817;DHT22;53289;45.602;11.904;2022-12-07T06:46:23;0.00;87.50
64817;DHT22;53289;45.602;11.904;2022-12-07T06:48:49;0.00;87.60
64817;DHT22;53289;45.602;11.904;2022-12-07T06:51:15;0.00;87.70
64817;DHT22;53289;45.602;11.904;2022-12-07T06:53:42;0.10;87.70
64817;DHT22;53289;45.602;11.904;2022-12-07T06:56:08;0.10;87.70
64817;DHT22;53289;45.602;11.904;2022-12-07T06:58:34;0.10;87.70
64817;DHT22;53289;45.602;11.904;2022-12-07T07:01:00;0.10;87.70
64817;DHT22;53289;45.602;11.904;2022-12-07T07:03:25;0.10;87.60
64817;DHT22;53289;45.602;11.904;2022-12-07T07:05:51;0.10;87.60
64817;DHT22;53289;45.602;11.904;2022-12-07T07:08:17;0.10;87.60
64817;DHT22;53289;45.602;11.904;2022-12-07T07:10:44;0.20;87.60
64817;DHT22;53289;45.602;11.904;2022-12-07T07:13:09;0.30;87.60
64817;DHT22;53289;45.602;11.904;2022-12-07T07:15:38;0.30;87.60
64817;DHT22;53289;45.602;11.904;2022-12-07T07:18:04;0.30;87.70
64817;DHT22;53289;45.602;11.904;2022-12-07T07:20:30;0.40;87.70
64817;DHT22;53289;45.602;11.904;2022-12-07T07:22:56;0.40;87.60
64817;DHT22;53289;45.602;11.904;2022-12-07T07:25:22;0.40;87.60
64817;DHT22;53289;45.602;11.904;2022-12-07T07:27:48;0.50;87.60
64817;DHT22;53289;45.602;11.904;2022-12-07T07:30:14;0.50;87.60
64817;DHT22;53289;45.602;11.904;2022-12-07T07:32:40;0.60;87.60
64817;DHT22;53289;45.602;11.904;2022-12-07T07:35:06;0.60;87.60
64817;DHT22;53289;45.602;11.904;2022-12-07T07:37:32;0.70;87.60
64817;DHT22;53289;45.602;11.904;2022-12-07T07:39:58;0.80;87.40
64817;DHT22;53289;45.602;11.904;2022-12-07T07:42:24;0.80;87.40
64817;DHT22;53289;45.602;11.904;2022-12-07T07:44:50;0.90;87.30
64817;DHT22;53289;45.602;11.904;2022-12-07T07:47:16;0.90;87.30
64817;DHT22;53289;45.602;11.904;2022-12-07T07:49:42;0.90;87.20
64817;DHT22;53289;45.602;11.904;2022-12-07T07:52:08;0.90;87.10
64817;DHT22;53289;45.602;11.904;2022-12-07T07:54:34;0.90;87.10
64817;DHT22;53289;45.602;11.904;2022-12-07T07:56:59;1.00;87.20
64817;DHT22;53289;45.602;11.904;2022-12-07T07:59:25;1.10;87.10
64817;DHT22;53289;45.602;11.904;2022-12-07T08:01:51;1.20;87.10
64817;DHT22;53289;45.602;11.904;2022-12-07T08:04:17;1.30;87.10
64817;DHT22;53289;45.602;11.904;2022-12-07T08:06:43;1.40;87.00
64817;DHT22;53289;45.602;11.904;2022-12-07T08:09:09;1.50;86.90
64817;DHT22;53289;45.602;11.904;2022-12-07T08:11:36;1.60;86.70
64817;DHT22;53289;45.602;11.904;2022-12-07T08:14:03;1.60;86.60
64817;DHT22;53289;45.602;11.904;2022-12-07T08:16:29;1.70;86.70
64817;DHT22;53289;45.602;11.904;2022-12-07T08:18:55;1.80;86.60
64817;DHT22;53289;45.602;11.904;2022-12-07T08:21:21;1.90;86.50
64817;DHT22;53289;45.602;11.904;2022-12-07T08:23:47;2.00;86.30
64817;DHT22;53289;45.602;11.904;2022-12-07T08:26:15;2.10;86.30
64817;DHT22;53289;45.602;11.904;2022-12-07T08:28:41;2.20;86.20
64817;DHT22;53289;45.602;11.904;2022-12-07T08:31:14;2.30;86.20
64817;DHT22;53289;45.602;11.904;2022-12-07T08:33:41;2.50;86.20
64817;DHT22;53289;45.602;11.904;2022-12-07T08:36:09;2.60;86.10
64817;DHT22;53289;45.602;11.904;2022-12-07T08:38:36;2.80;86.00
64817;DHT22;53289;45.602;11.904;2022-12-07T08:41:03;3.00;85.70
64817;DHT22;53289;45.602;11.904;2022-12-07T08:43:29;3.10;85.90
64817;DHT22;53289;45.602;11.904;2022-12-07T08:46:04;3.40;85.80
64817;DHT22;53289;45.602;11.904;2022-12-07T08:48:32;3.60;85.80
64817;DHT22;53289;45.602;11.904;2022-12-07T08:50:58;3.90;85.70
64817;DHT22;53289;45.602;11.904;2022-12-07T08:53:24;4.10;85.30
64817;DHT22;53289;45.602;11.904;2022-12-07T08:55:50;4.30;85.00
64817;DHT22;53289;45.602;11.904;2022-12-07T08:58:18;4.50;84.30
64817;DHT22;53289;45.602;11.904;2022-12-07T09:00:43;4.60;83.60
64817;DHT22;53289;45.602;11.904;2022-12-07T09:03:09;4.80;82.80
64817;DHT22;53289;45.602;11.904;2022-12-07T09:05:35;4.90;82.50
64817;DHT22;53289;45.602;11.904;2022-12-07T09:08:02;4.90;82.10
64817;DHT22;53289;45.602;11.904;2022-12-07T09:10:29;5.10;82.50
64817;DHT22;53289;45.602;11.904;2022-12-07T09:12:55;5.30;82.60
64817;DHT22;53289;45.602;11.904;2022-12-07T09:15:21;5.50;82.30
64817;DHT22;53289;45.602;11.904;2022-12-07T09:17:47;5.70;81.80
64817;DHT22;53289;45.602;11.904;2022-12-07T09:20:13;5.90;81.20
64817;DHT22;53289;45.602;11.904;2022-12-07T09:22:39;6.00;81.10
64817;DHT22;53289;45.602;11.904;2022-12-07T09:25:05;6.10;81.20
64817;DHT22;53289;45.602;11.904;2022-12-07T09:27:32;6.30;81.50
64817;DHT22;53289;45.602;11.904;2022-12-07T09:29:58;6.50;81.70
64817;DHT22;53289;45.602;11.904;2022-12-07T09:32:24;6.70;81.60
64817;DHT22;53289;45.602;11.904;2022-12-07T09:34:50;6.80;81.50
64817;DHT22;53289;45.602;11.904;2022-12-07T09:37:16;7.00;81.40
64817;DHT22;53289;45.602;11.904;2022-12-07T09:39:42;7.10;81.60
64817;DHT22;53289;45.602;11.904;2022-12-07T09:42:08;7.20;82.00
64817;DHT22;53289;45.602;11.904;2022-12-07T09:44:39;7.40;82.30
64817;DHT22;53289;45.602;11.904;2022-12-07T09:47:05;7.70;82.70
64817;DHT22;53289;45.602;11.904;2022-12-07T09:49:33;8.00;82.80
64817;DHT22;53289;45.602;11.904;2022-12-07T09:54:41;8.70;82.00
64817;DHT22;53289;45.602;11.904;2022-12-07T09:57:11;8.80;81.70
64817;DHT22;53289;45.602;11.904;2022-12-07T09:59:39;8.90;82.00
64817;DHT22;53289;45.602;11.904;2022-12-07T10:02:39;9.20;82.10
64817;DHT22;53289;45.602;11.904;2022-12-07T10:05:22;9.50;81.50
64817;DHT22;53289;45.602;11.904;2022-12-07T10:07:49;9.70;81.40
64817;DHT22;53289;45.602;11.904;2022-12-07T10:10:20;9.80;81.50
64817;DHT22;53289;45.602;11.904;2022-12-07T10:12:59;9.90;81.10
64817;DHT22;53289;45.602;11.904;2022-12-07T10:15:58;10.00;81.20
64817;DHT22;53289;45.602;11.904;2022-12-07T10:18:37;10.00;81.70
64817;DHT22;53289;45.602;11.904;2022-12-07T10:21:15;10.10;82.20
64817;DHT22;53289;45.602;11.904;2022-12-07T10:24:05;10.20;81.90
64817;DHT22;53289;45.602;11.904;2022-12-07T10:31:41;10.40;81.60
64817;DHT22;53289;45.602;11.904;2022-12-07T10:34:27;10.60;81.60
64817;DHT22;53289;45.602;11.904;2022-12-07T10:42:17;11.00;79.80
64817;DHT22;53289;45.602;11.904;2022-12-07T10:44:44;11.10;79.90
64817;DHT22;53289;45.602;11.904;2022-12-07T10:47:26;11.20;79.40
64817;DHT22;53289;45.602;11.904;2022-12-07T10:50:10;11.50;79.10
64817;DHT22;53289;45.602;11.904;2022-12-07T10:56:01;11.80;77.00
64817;DHT22;53289;45.602;11.904;2022-12-07T11:01:30;11.90;76.30
64817;DHT22;53289;45.602;11.904;2022-12-07T11:04:35;12.20;75.20
64817;DHT22;53289;45.602;11.904;2022-12-07T11:07:44;12.30;74.30
64817;DHT22;53289;45.602;11.904;2022-12-07T11:16:07;12.70;72.50
64817;DHT22;53289;45.602;11.904;2022-12-07T11:22:09;13.10;71.70
64817;DHT22;53289;45.602;11.904;2022-12-07T11:35:22;13.80;70.30
64817;DHT22;53289;45.602;11.904;2022-12-07T11:37:55;13.90;69.40
64817;DHT22;53289;45.602;11.904;2022-12-07T11:40:31;14.00;68.10
64817;DHT22;53289;45.602;11.904;2022-12-07T11:46:14;14.30;68.50
64817;DHT22;53289;45.602;11.904;2022-12-07T11:51:12;14.70;67.80
64817;DHT22;53289;45.602;11.904;2022-12-07T11:56:15;15.10;67.10
64817;DHT22;53289;45.602;11.904;2022-12-07T12:06:41;15.70;60.70
64817;DHT22;53289;45.602;11.904;2022-12-07T12:22:52;15.50;60.20
64817;DHT22;53289;45.602;11.904;2022-12-07T12:26:07;15.40;59.40
64817;DHT22;53289;45.602;11.904;2022-12-07T12:33:59;15.40;60.90
64817;DHT22;53289;45.602;11.904;2022-12-07T12:44:03;15.20;61.70
64817;DHT22;53289;45.602;11.904;2022-12-07T12:51:47;15.90;57.60
64817;DHT22;53289;45.602;11.904;2022-12-07T12:54:28;16.20;55.50
64817;DHT22;53289;45.602;11.904;2022-12-07T13:05:01;16.90;56.60
64817;DHT22;53289;45.602;11.904;2022-12-07T13:15:39;17.00;54.40
64817;DHT22;53289;45.602;11.904;2022-12-07T13:20:51;16.20;54.50
64817;DHT22;53289;45.602;11.904;2022-12-07T13:24:06;15.80;55.30
64817;DHT22;53289;45.602;11.904;2022-12-07T13:34:05;15.80;54.00
64817;DHT22;53289;45.602;11.904;2022-12-07T13:36:51;15.90;56.40
64817;DHT22;53289;45.602;11.904;2022-12-07T13:39:20;16.00;56.40
64817;DHT22;53289;45.602;11.904;2022-12-07T13:41:55;16.20;56.30
64817;DHT22;53289;45.602;11.904;2022-12-07T13:44:27;16.30;56.90
64817;DHT22;53289;45.602;11.904;2022-12-07T13:49:38;16.60;55.90
64817;DHT22;53289;45.602;11.904;2022-12-07T13:55:01;16.90;55.00
64817;DHT22;53289;45.602;11.904;2022-12-07T13:57:29;16.80;53.80
64817;DHT22;53289;45.602;11.904;2022-12-07T14:00:04;16.90;55.50
64817;DHT22;53289;45.602;11.904;2022-12-07T14:02:33;16.80;55.20
64817;DHT22;53289;45.602;11.904;2022-12-07T14:10:37;16.40;55.50
64817;DHT22;53289;45.602;11.904;2022-12-07T14:13:34;16.40;55.90
64817;DHT22;53289;45.602;11.904;2022-12-07T14:16:02;16.30;55.40
64817;DHT22;53289;45.602;11.904;2022-12-07T14:18:39;16.20;55.70
64817;DHT22;53289;45.602;11.904;2022-12-07T14:21:17;16.00;55.60
64817;DHT22;53289;45.602;11.904;2022-12-07T14:23:45;15.80;56.40
64817;DHT22;53289;45.602;11.904;2022-12-07T14:26:13;15.70;57.20
64817;DHT22;53289;45.602;11.904;2022-12-07T14:28:40;15.60;57.50
64817;DHT22;53289;45.602;11.904;2022-12-07T14:31:18;15.50;57.40
64817;DHT22;53289;45.602;11.904;2022-12-07T14:33:45;15.50;57.40
64817;DHT22;53289;45.602;11.904;2022-12-07T14:36:12;15.50;57.60
64817;DHT22;53289;45.602;11.904;2022-12-07T14:38:38;15.50;57.50
64817;DHT22;53289;45.602;11.904;2022-12-07T14:41:15;15.50;57.30
64817;DHT22;53289;45.602;11.904;2022-12-07T14:44:00;15.50;57.30
64817;DHT22;53289;45.602;11.904;2022-12-07T14:46:26;15.60;57.10
64817;DHT22;53289;45.602;11.904;2022-12-07T14:48:52;15.60;57.10
64817;DHT22;53289;45.602;11.904;2022-12-07T14:51:18;15.70;56.70
64817;DHT22;53289;45.602;11.904;2022-12-07T14:53:49;15.70;56.80
64817;DHT22;53289;45.602;11.904;2022-12-07T14:56:16;15.60;56.90
64817;DHT22;53289;45.602;11.904;2022-12-07T14:58:41;15.60;56.90
64817;DHT22;53289;45.602;11.904;2022-12-07T15:01:07;15.30;57.50
64817;DHT22;53289;45.602;11.904;2022-12-07T15:03:33;14.90;57.90
64817;DHT22;53289;45.602;11.904;2022-12-07T15:06:00;14.40;58.30
64817;DHT22;53289;45.602;11.904;2022-12-07T15:08:27;13.80;59.60
64817;DHT22;53289;45.602;11.904;2022-12-07T15:10:53;13.30;61.10
64817;DHT22;53289;45.602;11.904;2022-12-07T15:13:18;12.90;62.30
64817;DHT22;53289;45.602;11.904;2022-12-07T15:16:03;12.60;62.80
64817;DHT22;53289;45.602;11.904;2022-12-07T15:18:29;12.20;63.40
64817;DHT22;53289;45.602;11.904;2022-12-07T15:20:54;11.90;63.90
64817;DHT22;53289;45.602;11.904;2022-12-07T15:23:20;11.60;64.50
64817;DHT22;53289;45.602;11.904;2022-12-07T15:25:48;11.30;65.60
64817;DHT22;53289;45.602;11.904;2022-12-07T15:28:14;11.00;66.20
64817;DHT22;53289;45.602;11.904;2022-12-07T15:30:41;10.70;66.40
64817;DHT22;53289;45.602;11.904;2022-12-07T15:33:11;10.50;66.50
64817;DHT22;53289;45.602;11.904;2022-12-07T15:35:42;10.20;67.10
64817;DHT22;53289;45.602;11.904;2022-12-07T15:38:09;9.90;67.80
64817;DHT22;53289;45.602;11.904;2022-12-07T15:40:35;9.70;68.20
64817;DHT22;53289;45.602;11.904;2022-12-07T15:43:01;9.50;68.50
64817;DHT22;53289;45.602;11.904;2022-12-07T15:45:27;9.40;68.80
64817;DHT22;53289;45.602;11.904;2022-12-07T15:47:53;9.20;69.10
64817;DHT22;53289;45.602;11.904;2022-12-07T15:50:21;9.00;69.30
64817;DHT22;53289;45.602;11.904;2022-12-07T15:52:48;8.80;69.70
64817;DHT22;53289;45.602;11.904;2022-12-07T15:55:13;8.50;70.00
64817;DHT22;53289;45.602;11.904;2022-12-07T15:57:39;8.40;70.50
64817;DHT22;53289;45.602;11.904;2022-12-07T16:00:08;8.20;71.00
64817;DHT22;53289;45.602;11.904;2022-12-07T16:02:35;8.10;71.40
64817;DHT22;53289;45.602;11.904;2022-12-07T16:05:01;8.00;71.70
64817;DHT22;53289;45.602;11.904;2022-12-07T16:07:27;7.90;71.90
64817;DHT22;53289;45.602;11.904;2022-12-07T16:09:53;7.80;72.00
64817;DHT22;53289;45.602;11.904;2022-12-07T16:12:19;7.70;72.20
64817;DHT22;53289;45.602;11.904;2022-12-07T16:14:45;7.70;72.20
64817;DHT22;53289;45.602;11.904;2022-12-07T16:17:11;7.50;72.50
64817;DHT22;53289;45.602;11.904;2022-12-07T16:19:37;7.40;72.50
64817;DHT22;53289;45.602;11.904;2022-12-07T16:22:04;7.20;72.60
64817;DHT22;53289;45.602;11.904;2022-12-07T16:24:30;7.10;73.00
64817;DHT22;53289;45.602;11.904;2022-12-07T16:26:56;6.90;73.20
64817;DHT22;53289;45.602;11.904;2022-12-07T16:29:22;6.80;73.50
64817;DHT22;53289;45.602;11.904;2022-12-07T16:31:49;6.70;73.70
64817;DHT22;53289;45.602;11.904;2022-12-07T16:34:16;6.60;74.10
64817;DHT22;53289;45.602;11.904;2022-12-07T16:36:42;6.50;74.40
64817;DHT22;53289;45.602;11.904;2022-12-07T16:39:08;6.50;74.50
64817;DHT22;53289;45.602;11.904;2022-12-07T16:41:34;6.40;74.70
64817;DHT22;53289;45.602;11.904;2022-12-07T16:44:05;6.40;74.70
64817;DHT22;53289;45.602;11.904;2022-12-07T16:46:32;6.20;74.80
64817;DHT22;53289;45.602;11.904;2022-12-07T16:48:58;6.20;75.00
64817;DHT22;53289;45.602;11.904;2022-12-07T16:51:24;6.10;75.10
64817;DHT22;53289;45.602;11.904;2022-12-07T16:53:52;6.00;75.30
64817;DHT22;53289;45.602;11.904;2022-12-07T16:56:19;6.00;75.40
64817;DHT22;53289;45.602;11.904;2022-12-07T16:58:45;5.90;75.50
64817;DHT22;53289;45.602;11.904;2022-12-07T17:01:19;5.90;75.50
64817;DHT22;53289;45.602;11.904;2022-12-07T17:03:46;5.80;75.50
64817;DHT22;53289;45.602;11.904;2022-12-07T17:06:23;5.70;75.70
64817;DHT22;53289;45.602;11.904;2022-12-07T17:08:50;5.60;75.80
64817;DHT22;53289;45.602;11.904;2022-12-07T17:11:21;5.60;75.90
64817;DHT22;53289;45.602;11.904;2022-12-07T17:13:47;5.50;76.00
64817;DHT22;53289;45.602;11.904;2022-12-07T17:16:32;5.50;76.20
64817;DHT22;53289;45.602;11.904;2022-12-07T17:18:58;5.40;76.20
64817;DHT22;53289;45.602;11.904;2022-12-07T17:21:24;5.40;76.30
64817;DHT22;53289;45.602;11.904;2022-12-07T17:23:50;5.30;76.40
64817;DHT22;53289;45.602;11.904;2022-12-07T17:26:22;5.30;76.50
64817;DHT22;53289;45.602;11.904;2022-12-07T17:28:48;5.30;76.50
64817;DHT22;53289;45.602;11.904;2022-12-07T17:31:16;5.30;76.60
64817;DHT22;53289;45.602;11.904;2022-12-07T17:33:43;5.30;76.70
64817;DHT22;53289;45.602;11.904;2022-12-07T17:36:14;5.30;76.90
64817;DHT22;53289;45.602;11.904;2022-12-07T17:38:41;5.20;76.80
64817;DHT22;53289;45.602;11.904;2022-12-07T17:41:25;5.20;76.70
64817;DHT22;53289;45.602;11.904;2022-12-07T17:44:15;5.20;76.90
64817;DHT22;53289;45.602;11.904;2022-12-07T17:46:42;5.10;76.90
64817;DHT22;53289;45.602;11.904;2022-12-07T17:49:09;5.10;77.00
64817;DHT22;53289;45.602;11.904;2022-12-07T17:51:35;5.10;76.90
64817;DHT22;53289;45.602;11.904;2022-12-07T17:54:19;5.00;76.90
64817;DHT22;53289;45.602;11.904;2022-12-07T17:56:45;5.00;77.10
64817;DHT22;53289;45.602;11.904;2022-12-07T17:59:11;5.00;77.30
64817;DHT22;53289;45.602;11.904;2022-12-07T18:01:38;4.90;77.30
64817;DHT22;53289;45.602;11.904;2022-12-07T18:04:04;4.90;77.10
64817;DHT22;53289;45.602;11.904;2022-12-07T18:06:31;4.80;77.30
64817;DHT22;53289;45.602;11.904;2022-12-07T18:08:57;4.70;77.30
64817;DHT22;53289;45.602;11.904;2022-12-07T18:11:24;4.70;77.40
64817;DHT22;53289;45.602;11.904;2022-12-07T18:13:50;4.50;77.60
64817;DHT22;53289;45.602;11.904;2022-12-07T18:16:20;4.40;77.80
64817;DHT22;53289;45.602;11.904;2022-12-07T18:18:48;4.40;77.90
64817;DHT22;53289;45.602;11.904;2022-12-07T18:21:18;4.30;78.10